РУС

ENG

 
  Pireps - S7
 

Рейс SBI1074

  • Выполнял: Sergey Radchenko
  • Аэропорт отправления: Kurumoch International Airport (UWWW)
  • Аэропорт назначения: Domodedovo Airport (UUDD)
  • Тип ВС: A320-214 (VP-BDT)
  • Время полёта: 02.21
  • Дата полёта: 15.09.2021
  • Маршрут: DW B827 BMK R361 NELIL A244 MB R480 CW R489 MF ITINA RW GEKLA
  • Статус: Одобрен

Детали полёта
Gross Revenue:
(128 load / $ 150.00 per unit
$ 19, 200.00
Fuel Cost:
(6262 fuel used @ 5.1 / unit)
$ 31, 936.20


Дополнительная информация о полёте:

Лог

Aircraft Used in flight is Airbus A320 S7 Asobo
20:46 Boarding
20:46 Navigation Lights ON at 430 AGL
20:46 Brakes are On
20:54 Engine 1 Started
20:56 Taxi Lights ON at 430 AGL
20:57 Engine 2 Started
20:58 Beacon Lights ON at 430 AGL
21:00 Brakes are Released
21:00 Brakes are On
21:00 Brakes are Released
21:00Flaps 1 Selected at 430ft and 4kts
21:00Flaps 2 Selected at 430ft and 3kts
21:01Flaps 3 Selected at 440ft and 0kts
21:01Flaps 4 Selected at 440ft and 0kts
21:01Flaps 3 Selected at 440ft and 0kts
21:01Flaps 2 Selected at 440ft and 0kts
21:07 Strobe Lights ON at 390 AGL
21:12 Spoilers Armed
21:18 Taxi Lights OFF at 390 AGL
21:22 You Took off @ 154 Knots and Flaps at Position 2
Departure Weather
UWWW 151800Z 28003MPS 250V310 CAVOK 10/03 Q1008 R33/CLRD60 NOSIG RMK QFE745/0994
21:22 Paused
21:22 You Landed @ 157 Knots and with -50 Vertical Speed
Arrival Weather
UUDD 151730Z 29004MPS CAVOK 08/02 Q1014 R88/CLRD60 NOSIG=
21:22 Unpaused
21:23 Landing Gear Up @ 187 Knots and 1020 Feet
21:24Flaps 1 Selected at 5880ft and 160kts
21:24Flaps Retracted at 5980ft and 161kts
21:25 You exceeded maximum bank angle
22:28Flaps 1 Selected at 1930ft and 195kts
22:37Flaps 2 Selected at 1810ft and 200kts
22:51Flaps 3 Selected at 1780ft and 184kts
22:51Flaps 4 Selected at 1780ft and 173kts
22:51 Landing Gear Down @ 147 Knots and 1780 Feet
23:06 Paused
23:06Flaps 3 Selected at 560ft and 29kts
23:06Flaps 2 Selected at 560ft and 32kts
23:06Flaps 1 Selected at 570ft and 34kts
23:06Flaps Retracted at 570ft and 38kts
23:07 Unpaused
23:07 Taxi Lights ON at 570 AGL
23:07 Paused
23:10 Unpaused
23:10 Brakes are On
Pirep logged with S7 Tracking 1.0.0.14



Общая оценка полета : 100%




Route Map



 
 
   
 
Новости

03.09.2020 - Полеты в MFS 2020

Спешим сообщить вам, что теперь наш S7 Pad поддерживается для полетов в новом симуляторе MFS 2020. В разделе Загрузки вы найдете FSUIPC7.rar
Инструкция для запуска прилагается!

   
 
Авторизация






Регистрация

Восстановить пароль?

Мы в соц. сетях

      



   
 





   
 


   
 


Яндекс.Метрика

www.va-s7.ru 2011-2021
Все права защищены.



Минуточку внимания!
Сайт va-s7.ru не является коммерческим проектом. Мы не имеем отношения к торговым маркам "S7" и "Globus" и их представителям.
Эмблемы на сайте являются собственностью соответствующих компаний.

аэронавигационная метеорологическая и любая другая информация с данного ресурса ни в коем случае не должна использоваться для реальных полетов